sensor_id;sensor_type;location;lat;lon;timestamp;P1;durP1;ratioP1;P2;durP2;ratioP2
10465;SDS011;5280;42.600;23.556;2023-04-25T00:00:50;2.83;;;2.63;;
10465;SDS011;5280;42.600;23.556;2023-04-25T00:03:18;3.00;;;2.70;;
10465;SDS011;5280;42.600;23.556;2023-04-25T00:05:46;2.83;;;2.60;;
10465;SDS011;5280;42.600;23.556;2023-04-25T00:08:13;2.80;;;2.60;;
10465;SDS011;5280;42.600;23.556;2023-04-25T00:10:39;2.80;;;2.60;;
10465;SDS011;5280;42.600;23.556;2023-04-25T00:13:06;2.97;;;2.77;;
10465;SDS011;5280;42.600;23.556;2023-04-25T00:15:33;5.67;;;3.20;;
10465;SDS011;5280;42.600;23.556;2023-04-25T00:18:02;3.53;;;3.27;;
10465;SDS011;5280;42.600;23.556;2023-04-25T00:20:30;3.97;;;3.67;;
10465;SDS011;5280;42.600;23.556;2023-04-25T00:22:57;3.30;;;3.10;;
10465;SDS011;5280;42.600;23.556;2023-04-25T00:25:24;3.40;;;3.10;;
10465;SDS011;5280;42.600;23.556;2023-04-25T00:27:51;3.40;;;3.17;;
10465;SDS011;5280;42.600;23.556;2023-04-25T00:30:18;3.60;;;3.30;;
10465;SDS011;5280;42.600;23.556;2023-04-25T00:32:45;6.17;;;3.27;;
10465;SDS011;5280;42.600;23.556;2023-04-25T00:35:13;3.77;;;3.47;;
10465;SDS011;5280;42.600;23.556;2023-04-25T00:37:40;3.47;;;3.27;;
10465;SDS011;5280;42.600;23.556;2023-04-25T00:40:08;4.57;;;4.17;;
10465;SDS011;5280;42.600;23.556;2023-04-25T00:42:35;4.50;;;4.10;;
10465;SDS011;5280;42.600;23.556;2023-04-25T00:45:04;4.33;;;4.03;;
10465;SDS011;5280;42.600;23.556;2023-04-25T00:47:32;4.53;;;4.10;;
10465;SDS011;5280;42.600;23.556;2023-04-25T00:50:00;4.30;;;3.90;;
10465;SDS011;5280;42.600;23.556;2023-04-25T00:52:30;5.13;;;4.00;;
10465;SDS011;5280;42.600;23.556;2023-04-25T00:54:57;4.70;;;4.30;;
10465;SDS011;5280;42.600;23.556;2023-04-25T00:57:25;4.97;;;4.53;;
10465;SDS011;5280;42.600;23.556;2023-04-25T00:59:53;6.50;;;5.80;;
10465;SDS011;5280;42.600;23.556;2023-04-25T01:02:20;7.00;;;6.30;;
10465;SDS011;5280;42.600;23.556;2023-04-25T01:04:48;7.27;;;6.63;;
10465;SDS011;5280;42.600;23.556;2023-04-25T01:07:14;6.97;;;6.30;;
10465;SDS011;5280;42.600;23.556;2023-04-25T01:09:45;6.50;;;6.00;;
10465;SDS011;5280;42.600;23.556;2023-04-25T01:12:12;7.33;;;6.73;;
10465;SDS011;5280;42.600;23.556;2023-04-25T01:14:39;7.10;;;6.40;;
10465;SDS011;5280;42.600;23.556;2023-04-25T01:17:06;6.93;;;6.33;;
10465;SDS011;5280;42.600;23.556;2023-04-25T01:19:34;7.30;;;6.60;;
10465;SDS011;5280;42.600;23.556;2023-04-25T01:22:02;6.43;;;5.93;;
10465;SDS011;5280;42.600;23.556;2023-04-25T01:24:30;6.07;;;5.57;;
10465;SDS011;5280;42.600;23.556;2023-04-25T01:26:58;6.70;;;6.10;;
10465;SDS011;5280;42.600;23.556;2023-04-25T01:29:27;6.27;;;5.77;;
10465;SDS011;5280;42.600;23.556;2023-04-25T01:31:55;6.53;;;5.93;;
10465;SDS011;5280;42.600;23.556;2023-04-25T01:34:23;6.30;;;5.73;;
10465;SDS011;5280;42.600;23.556;2023-04-25T01:36:50;6.23;;;5.73;;
10465;SDS011;5280;42.600;23.556;2023-04-25T01:39:19;5.93;;;5.43;;
10465;SDS011;5280;42.600;23.556;2023-04-25T01:41:47;6.30;;;5.80;;
10465;SDS011;5280;42.600;23.556;2023-04-25T01:44:14;5.87;;;5.47;;
10465;SDS011;5280;42.600;23.556;2023-04-25T01:46:42;6.43;;;5.97;;
10465;SDS011;5280;42.600;23.556;2023-04-25T01:49:09;6.40;;;5.90;;
10465;SDS011;5280;42.600;23.556;2023-04-25T01:51:35;6.23;;;5.73;;
10465;SDS011;5280;42.600;23.556;2023-04-25T01:54:03;6.43;;;5.93;;
10465;SDS011;5280;42.600;23.556;2023-04-25T01:56:34;7.03;;;6.40;;
10465;SDS011;5280;42.600;23.556;2023-04-25T01:59:03;6.73;;;6.13;;
10465;SDS011;5280;42.600;23.556;2023-04-25T02:01:31;6.67;;;6.17;;
10465;SDS011;5280;42.600;23.556;2023-04-25T02:03:58;6.40;;;5.77;;
10465;SDS011;5280;42.600;23.556;2023-04-25T02:06:24;6.33;;;5.87;;
10465;SDS011;5280;42.600;23.556;2023-04-25T02:08:51;5.50;;;5.00;;
10465;SDS011;5280;42.600;23.556;2023-04-25T02:11:19;5.67;;;5.17;;
10465;SDS011;5280;42.600;23.556;2023-04-25T02:13:47;5.30;;;4.90;;
10465;SDS011;5280;42.600;23.556;2023-04-25T02:16:14;5.07;;;4.77;;
10465;SDS011;5280;42.600;23.556;2023-04-25T02:18:40;5.60;;;5.20;;
10465;SDS011;5280;42.600;23.556;2023-04-25T02:21:08;4.90;;;4.57;;
10465;SDS011;5280;42.600;23.556;2023-04-25T02:23:34;5.50;;;5.10;;
10465;SDS011;5280;42.600;23.556;2023-04-25T02:26:01;5.00;;;4.57;;
10465;SDS011;5280;42.600;23.556;2023-04-25T02:28:28;5.10;;;4.80;;
10465;SDS011;5280;42.600;23.556;2023-04-25T02:30:56;4.80;;;4.33;;
10465;SDS011;5280;42.600;23.556;2023-04-25T02:33:23;5.40;;;5.00;;
10465;SDS011;5280;42.600;23.556;2023-04-25T02:35:50;4.80;;;4.40;;
10465;SDS011;5280;42.600;23.556;2023-04-25T02:38:17;5.60;;;5.10;;
10465;SDS011;5280;42.600;23.556;2023-04-25T02:40:44;6.27;;;5.77;;
10465;SDS011;5280;42.600;23.556;2023-04-25T02:43:11;5.30;;;4.90;;
10465;SDS011;5280;42.600;23.556;2023-04-25T02:45:38;5.20;;;4.80;;
10465;SDS011;5280;42.600;23.556;2023-04-25T02:48:06;5.20;;;4.80;;
10465;SDS011;5280;42.600;23.556;2023-04-25T02:50:33;5.77;;;5.17;;
10465;SDS011;5280;42.600;23.556;2023-04-25T02:53:00;10.30;;;5.63;;
10465;SDS011;5280;42.600;23.556;2023-04-25T02:55:27;4.80;;;4.40;;
10465;SDS011;5280;42.600;23.556;2023-04-25T02:57:53;5.27;;;4.87;;
10465;SDS011;5280;42.600;23.556;2023-04-25T03:00:21;6.10;;;4.70;;
10465;SDS011;5280;42.600;23.556;2023-04-25T03:02:48;5.10;;;4.60;;
10465;SDS011;5280;42.600;23.556;2023-04-25T03:05:17;4.70;;;4.30;;
10465;SDS011;5280;42.600;23.556;2023-04-25T03:07:44;4.53;;;4.23;;
10465;SDS011;5280;42.600;23.556;2023-04-25T03:10:11;5.03;;;4.70;;
10465;SDS011;5280;42.600;23.556;2023-04-25T03:12:38;5.50;;;4.90;;
10465;SDS011;5280;42.600;23.556;2023-04-25T03:15:05;5.50;;;5.00;;
10465;SDS011;5280;42.600;23.556;2023-04-25T03:17:32;5.63;;;5.03;;
10465;SDS011;5280;42.600;23.556;2023-04-25T03:19:59;5.97;;;5.43;;
10465;SDS011;5280;42.600;23.556;2023-04-25T03:22:28;5.63;;;5.13;;
10465;SDS011;5280;42.600;23.556;2023-04-25T03:24:55;5.80;;;5.40;;
10465;SDS011;5280;42.600;23.556;2023-04-25T03:27:21;5.87;;;5.37;;
10465;SDS011;5280;42.600;23.556;2023-04-25T03:29:48;6.07;;;5.53;;
10465;SDS011;5280;42.600;23.556;2023-04-25T03:32:18;5.73;;;5.33;;
10465;SDS011;5280;42.600;23.556;2023-04-25T03:34:45;5.50;;;5.10;;
10465;SDS011;5280;42.600;23.556;2023-04-25T03:37:11;10.07;;;5.47;;
10465;SDS011;5280;42.600;23.556;2023-04-25T03:39:43;5.93;;;5.37;;
10465;SDS011;5280;42.600;23.556;2023-04-25T03:42:09;5.90;;;5.30;;
10465;SDS011;5280;42.600;23.556;2023-04-25T03:44:36;5.33;;;4.60;;
10465;SDS011;5280;42.600;23.556;2023-04-25T03:47:06;5.37;;;4.87;;
10465;SDS011;5280;42.600;23.556;2023-04-25T03:49:34;5.67;;;5.27;;
10465;SDS011;5280;42.600;23.556;2023-04-25T03:52:02;6.03;;;5.53;;
10465;SDS011;5280;42.600;23.556;2023-04-25T03:54:29;6.53;;;5.27;;
10465;SDS011;5280;42.600;23.556;2023-04-25T03:56:57;7.43;;;6.17;;
10465;SDS011;5280;42.600;23.556;2023-04-25T03:59:24;7.50;;;6.77;;
10465;SDS011;5280;42.600;23.556;2023-04-25T04:01:52;5.90;;;5.40;;
10465;SDS011;5280;42.600;23.556;2023-04-25T04:04:19;7.33;;;6.73;;
10465;SDS011;5280;42.600;23.556;2023-04-25T04:06:45;6.67;;;6.07;;
10465;SDS011;5280;42.600;23.556;2023-04-25T04:09:12;6.20;;;5.70;;
10465;SDS011;5280;42.600;23.556;2023-04-25T04:11:40;6.37;;;5.70;;
10465;SDS011;5280;42.600;23.556;2023-04-25T04:14:09;6.03;;;5.53;;
10465;SDS011;5280;42.600;23.556;2023-04-25T04:16:36;6.43;;;5.83;;
10465;SDS011;5280;42.600;23.556;2023-04-25T04:19:03;6.60;;;6.00;;
10465;SDS011;5280;42.600;23.556;2023-04-25T04:21:29;7.30;;;6.20;;
10465;SDS011;5280;42.600;23.556;2023-04-25T04:23:58;6.83;;;6.23;;
10465;SDS011;5280;42.600;23.556;2023-04-25T04:26:25;6.77;;;6.17;;
10465;SDS011;5280;42.600;23.556;2023-04-25T04:28:52;7.60;;;6.77;;
10465;SDS011;5280;42.600;23.556;2023-04-25T04:31:22;8.00;;;7.27;;
10465;SDS011;5280;42.600;23.556;2023-04-25T04:33:49;7.37;;;6.67;;
10465;SDS011;5280;42.600;23.556;2023-04-25T04:36:15;6.57;;;5.97;;
10465;SDS011;5280;42.600;23.556;2023-04-25T04:38:44;6.30;;;5.70;;
10465;SDS011;5280;42.600;23.556;2023-04-25T04:41:11;7.30;;;6.60;;
10465;SDS011;5280;42.600;23.556;2023-04-25T04:43:38;7.40;;;6.80;;
10465;SDS011;5280;42.600;23.556;2023-04-25T04:46:05;8.07;;;7.33;;
10465;SDS011;5280;42.600;23.556;2023-04-25T04:48:34;12.87;;;11.57;;
10465;SDS011;5280;42.600;23.556;2023-04-25T04:51:00;11.30;;;10.30;;
10465;SDS011;5280;42.600;23.556;2023-04-25T04:53:27;9.67;;;8.80;;
10465;SDS011;5280;42.600;23.556;2023-04-25T04:55:54;8.10;;;7.33;;
10465;SDS011;5280;42.600;23.556;2023-04-25T04:58:21;7.03;;;6.27;;
10465;SDS011;5280;42.600;23.556;2023-04-25T05:00:48;7.77;;;7.00;;
10465;SDS011;5280;42.600;23.556;2023-04-25T05:03:14;9.27;;;8.23;;
10465;SDS011;5280;42.600;23.556;2023-04-25T05:05:43;9.73;;;8.77;;
10465;SDS011;5280;42.600;23.556;2023-04-25T05:08:10;10.97;;;9.87;;
10465;SDS011;5280;42.600;23.556;2023-04-25T05:10:37;9.20;;;8.40;;
10465;SDS011;5280;42.600;23.556;2023-04-25T05:13:04;8.70;;;7.90;;
10465;SDS011;5280;42.600;23.556;2023-04-25T05:15:31;6.20;;;5.33;;
10465;SDS011;5280;42.600;23.556;2023-04-25T05:17:58;7.73;;;7.03;;
10465;SDS011;5280;42.600;23.556;2023-04-25T05:20:25;8.00;;;7.30;;
10465;SDS011;5280;42.600;23.556;2023-04-25T05:22:53;8.00;;;7.30;;
10465;SDS011;5280;42.600;23.556;2023-04-25T05:25:20;84.33;;;12.07;;
10465;SDS011;5280;42.600;23.556;2023-04-25T05:27:47;100.63;;;12.53;;
10465;SDS011;5280;42.600;23.556;2023-04-25T05:30:14;12.17;;;10.03;;
10465;SDS011;5280;42.600;23.556;2023-04-25T05:32:41;12.00;;;10.80;;
10465;SDS011;5280;42.600;23.556;2023-04-25T05:35:08;12.47;;;10.20;;
10465;SDS011;5280;42.600;23.556;2023-04-25T05:37:35;11.47;;;10.47;;
10465;SDS011;5280;42.600;23.556;2023-04-25T05:40:03;11.77;;;10.67;;
10465;SDS011;5280;42.600;23.556;2023-04-25T05:42:32;99.53;;;13.77;;
10465;SDS011;5280;42.600;23.556;2023-04-25T05:44:59;10.03;;;9.23;;
10465;SDS011;5280;42.600;23.556;2023-04-25T05:47:26;25.03;;;10.70;;
10465;SDS011;5280;42.600;23.556;2023-04-25T05:49:53;10.30;;;9.30;;
10465;SDS011;5280;42.600;23.556;2023-04-25T05:52:20;10.10;;;9.20;;
10465;SDS011;5280;42.600;23.556;2023-04-25T05:54:47;12.80;;;11.50;;
10465;SDS011;5280;42.600;23.556;2023-04-25T05:57:22;10.97;;;9.87;;
10465;SDS011;5280;42.600;23.556;2023-04-25T05:59:50;12.77;;;11.53;;
10465;SDS011;5280;42.600;23.556;2023-04-25T06:02:18;13.07;;;11.83;;
10465;SDS011;5280;42.600;23.556;2023-04-25T06:04:45;14.13;;;12.77;;
10465;SDS011;5280;42.600;23.556;2023-04-25T06:07:13;13.70;;;12.33;;
10465;SDS011;5280;42.600;23.556;2023-04-25T06:09:40;11.70;;;10.50;;
10465;SDS011;5280;42.600;23.556;2023-04-25T06:12:06;11.83;;;10.70;;
10465;SDS011;5280;42.600;23.556;2023-04-25T06:14:34;13.73;;;11.13;;
10465;SDS011;5280;42.600;23.556;2023-04-25T06:17:02;13.43;;;12.13;;
10465;SDS011;5280;42.600;23.556;2023-04-25T06:19:31;15.83;;;12.53;;
10465;SDS011;5280;42.600;23.556;2023-04-25T06:21:59;12.63;;;11.07;;
10465;SDS011;5280;42.600;23.556;2023-04-25T06:24:25;11.83;;;10.77;;
10465;SDS011;5280;42.600;23.556;2023-04-25T06:26:52;12.20;;;11.10;;
10465;SDS011;5280;42.600;23.556;2023-04-25T06:29:19;12.97;;;11.77;;
10465;SDS011;5280;42.600;23.556;2023-04-25T06:31:47;13.77;;;12.53;;
10465;SDS011;5280;42.600;23.556;2023-04-25T06:34:14;12.60;;;11.50;;
10465;SDS011;5280;42.600;23.556;2023-04-25T06:36:41;12.10;;;11.00;;
10465;SDS011;5280;42.600;23.556;2023-04-25T06:39:09;11.77;;;10.70;;
10465;SDS011;5280;42.600;23.556;2023-04-25T06:41:36;12.80;;;11.70;;
10465;SDS011;5280;42.600;23.556;2023-04-25T06:44:03;11.10;;;10.10;;
10465;SDS011;5280;42.600;23.556;2023-04-25T06:46:30;8.90;;;8.20;;
10465;SDS011;5280;42.600;23.556;2023-04-25T06:48:58;6.47;;;5.97;;
10465;SDS011;5280;42.600;23.556;2023-04-25T06:51:24;10.17;;;9.27;;
10465;SDS011;5280;42.600;23.556;2023-04-25T06:53:54;9.83;;;8.83;;
10465;SDS011;5280;42.600;23.556;2023-04-25T06:56:21;10.87;;;9.87;;
10465;SDS011;5280;42.600;23.556;2023-04-25T06:58:48;10.93;;;9.93;;
10465;SDS011;5280;42.600;23.556;2023-04-25T07:01:15;9.57;;;8.77;;
10465;SDS011;5280;42.600;23.556;2023-04-25T07:03:42;9.67;;;8.87;;
10465;SDS011;5280;42.600;23.556;2023-04-25T07:06:10;10.40;;;9.30;;
10465;SDS011;5280;42.600;23.556;2023-04-25T07:08:37;9.33;;;8.57;;
10465;SDS011;5280;42.600;23.556;2023-04-25T07:11:03;8.03;;;7.30;;
10465;SDS011;5280;42.600;23.556;2023-04-25T07:13:30;8.13;;;7.43;;
10465;SDS011;5280;42.600;23.556;2023-04-25T07:15:57;6.93;;;6.33;;
10465;SDS011;5280;42.600;23.556;2023-04-25T07:18:24;7.00;;;6.40;;
10465;SDS011;5280;42.600;23.556;2023-04-25T07:20:51;7.70;;;7.10;;
10465;SDS011;5280;42.600;23.556;2023-04-25T07:23:19;7.00;;;6.43;;
10465;SDS011;5280;42.600;23.556;2023-04-25T07:25:46;7.10;;;6.50;;
10465;SDS011;5280;42.600;23.556;2023-04-25T07:28:13;7.27;;;6.67;;
10465;SDS011;5280;42.600;23.556;2023-04-25T07:30:40;7.00;;;6.40;;
10465;SDS011;5280;42.600;23.556;2023-04-25T07:33:07;6.17;;;5.57;;
10465;SDS011;5280;42.600;23.556;2023-04-25T07:35:34;4.67;;;4.37;;
10465;SDS011;5280;42.600;23.556;2023-04-25T07:38:01;3.40;;;3.20;;
10465;SDS011;5280;42.600;23.556;2023-04-25T07:40:30;3.40;;;3.20;;
10465;SDS011;5280;42.600;23.556;2023-04-25T07:42:56;4.17;;;3.87;;
10465;SDS011;5280;42.600;23.556;2023-04-25T07:45:23;4.00;;;3.70;;
10465;SDS011;5280;42.600;23.556;2023-04-25T07:47:50;3.60;;;3.40;;
10465;SDS011;5280;42.600;23.556;2023-04-25T07:50:17;3.87;;;3.57;;
10465;SDS011;5280;42.600;23.556;2023-04-25T07:52:45;4.67;;;4.33;;
10465;SDS011;5280;42.600;23.556;2023-04-25T07:55:11;4.00;;;3.77;;
10465;SDS011;5280;42.600;23.556;2023-04-25T07:57:39;4.53;;;4.20;;
10465;SDS011;5280;42.600;23.556;2023-04-25T08:00:07;4.13;;;3.93;;
10465;SDS011;5280;42.600;23.556;2023-04-25T08:02:36;4.40;;;4.07;;
10465;SDS011;5280;42.600;23.556;2023-04-25T08:05:04;4.37;;;4.00;;
10465;SDS011;5280;42.600;23.556;2023-04-25T08:07:33;4.40;;;4.00;;
10465;SDS011;5280;42.600;23.556;2023-04-25T08:10:00;4.13;;;3.83;;
10465;SDS011;5280;42.600;23.556;2023-04-25T08:12:26;4.53;;;4.17;;
10465;SDS011;5280;42.600;23.556;2023-04-25T08:14:54;5.00;;;4.10;;
10465;SDS011;5280;42.600;23.556;2023-04-25T08:17:21;4.70;;;4.40;;
10465;SDS011;5280;42.600;23.556;2023-04-25T08:19:48;5.30;;;4.90;;
10465;SDS011;5280;42.600;23.556;2023-04-25T08:22:15;5.20;;;4.70;;
10465;SDS011;5280;42.600;23.556;2023-04-25T08:24:42;4.77;;;4.37;;
10465;SDS011;5280;42.600;23.556;2023-04-25T08:27:08;5.13;;;4.73;;
10465;SDS011;5280;42.600;23.556;2023-04-25T08:29:36;5.23;;;4.80;;
10465;SDS011;5280;42.600;23.556;2023-04-25T08:32:04;5.43;;;4.93;;
10465;SDS011;5280;42.600;23.556;2023-04-25T08:34:31;5.70;;;5.30;;
10465;SDS011;5280;42.600;23.556;2023-04-25T08:36:58;5.43;;;5.03;;
10465;SDS011;5280;42.600;23.556;2023-04-25T08:39:25;5.23;;;4.83;;
10465;SDS011;5280;42.600;23.556;2023-04-25T08:41:52;4.90;;;4.50;;
10465;SDS011;5280;42.600;23.556;2023-04-25T08:44:19;5.43;;;4.97;;
10465;SDS011;5280;42.600;23.556;2023-04-25T08:46:47;5.23;;;4.83;;
10465;SDS011;5280;42.600;23.556;2023-04-25T08:49:16;4.40;;;4.10;;
10465;SDS011;5280;42.600;23.556;2023-04-25T08:51:44;4.60;;;4.30;;
10465;SDS011;5280;42.600;23.556;2023-04-25T08:54:13;4.83;;;4.50;;
10465;SDS011;5280;42.600;23.556;2023-04-25T08:56:41;5.40;;;5.00;;
10465;SDS011;5280;42.600;23.556;2023-04-25T08:59:11;5.30;;;4.90;;
10465;SDS011;5280;42.600;23.556;2023-04-25T09:01:38;5.40;;;4.90;;
10465;SDS011;5280;42.600;23.556;2023-04-25T09:04:06;5.33;;;4.93;;
10465;SDS011;5280;42.600;23.556;2023-04-25T09:06:34;6.17;;;3.87;;
10465;SDS011;5280;42.600;23.556;2023-04-25T09:09:02;3.47;;;3.20;;
10465;SDS011;5280;42.600;23.556;2023-04-25T09:11:31;4.13;;;3.80;;
10465;SDS011;5280;42.600;23.556;2023-04-25T09:14:11;3.77;;;3.47;;
10465;SDS011;5280;42.600;23.556;2023-04-25T09:19:33;3.57;;;3.37;;
10465;SDS011;5280;42.600;23.556;2023-04-25T09:22:04;3.40;;;3.20;;
10465;SDS011;5280;42.600;23.556;2023-04-25T09:24:40;3.83;;;3.57;;
10465;SDS011;5280;42.600;23.556;2023-04-25T09:27:09;3.53;;;3.33;;
10465;SDS011;5280;42.600;23.556;2023-04-25T09:29:37;4.13;;;3.43;;
10465;SDS011;5280;42.600;23.556;2023-04-25T09:32:12;3.27;;;3.07;;
10465;SDS011;5280;42.600;23.556;2023-04-25T09:34:41;3.80;;;3.00;;
10465;SDS011;5280;42.600;23.556;2023-04-25T09:37:16;3.50;;;3.10;;
10465;SDS011;5280;42.600;23.556;2023-04-25T09:39:44;3.47;;;2.57;;
10465;SDS011;5280;42.600;23.556;2023-04-25T09:42:12;2.97;;;2.37;;
10465;SDS011;5280;42.600;23.556;2023-04-25T09:44:41;3.07;;;2.20;;
10465;SDS011;5280;42.600;23.556;2023-04-25T09:47:09;1.90;;;1.80;;
10465;SDS011;5280;42.600;23.556;2023-04-25T09:49:39;2.50;;;2.10;;
10465;SDS011;5280;42.600;23.556;2023-04-25T09:52:07;2.00;;;1.90;;
10465;SDS011;5280;42.600;23.556;2023-04-25T09:54:36;2.03;;;1.93;;
10465;SDS011;5280;42.600;23.556;2023-04-25T09:57:04;2.10;;;2.00;;
10465;SDS011;5280;42.600;23.556;2023-04-25T09:59:38;2.17;;;2.07;;
10465;SDS011;5280;42.600;23.556;2023-04-25T10:02:07;2.70;;;2.50;;
10465;SDS011;5280;42.600;23.556;2023-04-25T10:04:35;2.40;;;2.20;;
10465;SDS011;5280;42.600;23.556;2023-04-25T10:07:04;3.27;;;2.63;;
10465;SDS011;5280;42.600;23.556;2023-04-25T10:09:32;2.27;;;2.10;;
10465;SDS011;5280;42.600;23.556;2023-04-25T10:12:01;2.43;;;2.20;;
10465;SDS011;5280;42.600;23.556;2023-04-25T10:14:29;2.53;;;2.03;;
10465;SDS011;5280;42.600;23.556;2023-04-25T10:16:57;2.40;;;2.30;;
10465;SDS011;5280;42.600;23.556;2023-04-25T10:19:24;2.20;;;2.10;;
10465;SDS011;5280;42.600;23.556;2023-04-25T10:21:52;3.23;;;2.13;;
10465;SDS011;5280;42.600;23.556;2023-04-25T10:24:21;2.50;;;2.30;;
10465;SDS011;5280;42.600;23.556;2023-04-25T10:26:50;2.70;;;2.50;;
10465;SDS011;5280;42.600;23.556;2023-04-25T10:29:25;2.60;;;2.30;;
10465;SDS011;5280;42.600;23.556;2023-04-25T10:31:52;2.20;;;2.10;;
10465;SDS011;5280;42.600;23.556;2023-04-25T10:34:23;2.20;;;2.10;;
10465;SDS011;5280;42.600;23.556;2023-04-25T10:36:52;2.00;;;1.90;;
10465;SDS011;5280;42.600;23.556;2023-04-25T10:39:22;1.90;;;1.80;;
10465;SDS011;5280;42.600;23.556;2023-04-25T10:41:53;2.40;;;2.20;;
10465;SDS011;5280;42.600;23.556;2023-04-25T10:44:22;3.57;;;3.33;;
10465;SDS011;5280;42.600;23.556;2023-04-25T10:46:51;3.40;;;3.10;;
10465;SDS011;5280;42.600;23.556;2023-04-25T10:52:16;2.40;;;2.30;;
10465;SDS011;5280;42.600;23.556;2023-04-25T10:54:48;2.20;;;2.00;;
10465;SDS011;5280;42.600;23.556;2023-04-25T10:57:27;2.03;;;1.97;;
10465;SDS011;5280;42.600;23.556;2023-04-25T10:59:57;2.17;;;2.07;;
10465;SDS011;5280;42.600;23.556;2023-04-25T11:02:27;2.13;;;1.93;;
10465;SDS011;5280;42.600;23.556;2023-04-25T11:04:54;1.87;;;1.73;;
10465;SDS011;5280;42.600;23.556;2023-04-25T11:07:23;2.17;;;1.93;;
10465;SDS011;5280;42.600;23.556;2023-04-25T11:10:03;2.40;;;2.27;;
10465;SDS011;5280;42.600;23.556;2023-04-25T11:12:31;7.10;;;5.23;;
10465;SDS011;5280;42.600;23.556;2023-04-25T11:14:59;2.17;;;1.97;;
10465;SDS011;5280;42.600;23.556;2023-04-25T11:17:29;2.80;;;1.90;;
10465;SDS011;5280;42.600;23.556;2023-04-25T11:19:56;4.30;;;2.40;;
10465;SDS011;5280;42.600;23.556;2023-04-25T11:22:23;2.77;;;1.87;;
10465;SDS011;5280;42.600;23.556;2023-04-25T11:24:50;1.80;;;1.30;;
10465;SDS011;5280;42.600;23.556;2023-04-25T11:27:17;1.00;;;0.97;;
10465;SDS011;5280;42.600;23.556;2023-04-25T11:29:44;2.57;;;0.80;;
10465;SDS011;5280;42.600;23.556;2023-04-25T11:32:13;0.70;;;0.70;;
10465;SDS011;5280;42.600;23.556;2023-04-25T11:34:43;1.03;;;0.93;;
10465;SDS011;5280;42.600;23.556;2023-04-25T11:37:11;3.23;;;1.50;;
10465;SDS011;5280;42.600;23.556;2023-04-25T11:39:42;1.73;;;1.60;;
10465;SDS011;5280;42.600;23.556;2023-04-25T11:42:13;1.60;;;1.50;;
10465;SDS011;5280;42.600;23.556;2023-04-25T11:44:40;1.77;;;0.90;;
10465;SDS011;5280;42.600;23.556;2023-04-25T11:47:07;1.00;;;0.93;;
10465;SDS011;5280;42.600;23.556;2023-04-25T11:49:33;2.53;;;1.20;;
10465;SDS011;5280;42.600;23.556;2023-04-25T11:52:05;1.10;;;1.10;;
10465;SDS011;5280;42.600;23.556;2023-04-25T11:54:34;1.07;;;1.07;;
10465;SDS011;5280;42.600;23.556;2023-04-25T11:57:01;1.10;;;1.00;;
10465;SDS011;5280;42.600;23.556;2023-04-25T11:59:28;2.33;;;1.40;;
10465;SDS011;5280;42.600;23.556;2023-04-25T12:01:56;2.97;;;2.53;;
10465;SDS011;5280;42.600;23.556;2023-04-25T12:04:24;1.43;;;1.33;;
10465;SDS011;5280;42.600;23.556;2023-04-25T12:06:52;1.20;;;1.10;;
10465;SDS011;5280;42.600;23.556;2023-04-25T12:09:21;1.70;;;1.60;;
10465;SDS011;5280;42.600;23.556;2023-04-25T12:11:55;2.03;;;1.83;;
10465;SDS011;5280;42.600;23.556;2023-04-25T12:14:23;3.23;;;2.47;;
10465;SDS011;5280;42.600;23.556;2023-04-25T12:16:52;2.53;;;2.33;;
10465;SDS011;5280;42.600;23.556;2023-04-25T12:19:21;1.70;;;1.60;;
10465;SDS011;5280;42.600;23.556;2023-04-25T12:21:48;1.77;;;1.57;;
10465;SDS011;5280;42.600;23.556;2023-04-25T12:24:16;1.70;;;1.50;;
10465;SDS011;5280;42.600;23.556;2023-04-25T12:26:50;2.10;;;1.60;;
10465;SDS011;5280;42.600;23.556;2023-04-25T12:29:18;1.20;;;1.20;;
10465;SDS011;5280;42.600;23.556;2023-04-25T12:31:46;1.53;;;1.40;;
10465;SDS011;5280;42.600;23.556;2023-04-25T12:34:13;1.03;;;1.03;;
10465;SDS011;5280;42.600;23.556;2023-04-25T12:36:40;2.30;;;1.40;;
10465;SDS011;5280;42.600;23.556;2023-04-25T12:39:07;1.30;;;1.20;;
10465;SDS011;5280;42.600;23.556;2023-04-25T12:41:36;5.33;;;1.47;;
10465;SDS011;5280;42.600;23.556;2023-04-25T12:44:04;1.23;;;1.20;;
10465;SDS011;5280;42.600;23.556;2023-04-25T12:46:31;1.63;;;1.40;;
10465;SDS011;5280;42.600;23.556;2023-04-25T12:48:58;1.30;;;1.20;;
10465;SDS011;5280;42.600;23.556;2023-04-25T12:51:25;1.80;;;1.20;;
10465;SDS011;5280;42.600;23.556;2023-04-25T12:53:52;3.40;;;1.27;;
10465;SDS011;5280;42.600;23.556;2023-04-25T12:56:19;0.80;;;0.80;;
10465;SDS011;5280;42.600;23.556;2023-04-25T12:58:49;1.33;;;1.10;;
10465;SDS011;5280;42.600;23.556;2023-04-25T13:01:18;1.40;;;1.20;;
10465;SDS011;5280;42.600;23.556;2023-04-25T13:03:45;1.00;;;1.00;;
10465;SDS011;5280;42.600;23.556;2023-04-25T13:06:13;1.13;;;1.13;;
10465;SDS011;5280;42.600;23.556;2023-04-25T13:08:40;1.70;;;1.20;;
10465;SDS011;5280;42.600;23.556;2023-04-25T13:11:07;1.30;;;1.20;;
10465;SDS011;5280;42.600;23.556;2023-04-25T13:13:34;0.80;;;0.80;;
10465;SDS011;5280;42.600;23.556;2023-04-25T13:16:01;1.03;;;0.93;;
10465;SDS011;5280;42.600;23.556;2023-04-25T13:18:29;1.10;;;0.80;;
10465;SDS011;5280;42.600;23.556;2023-04-25T13:20:57;1.17;;;1.07;;
10465;SDS011;5280;42.600;23.556;2023-04-25T13:23:24;1.20;;;0.83;;
10465;SDS011;5280;42.600;23.556;2023-04-25T13:25:52;0.93;;;0.83;;
10465;SDS011;5280;42.600;23.556;2023-04-25T13:28:19;1.10;;;1.00;;
10465;SDS011;5280;42.600;23.556;2023-04-25T13:30:46;1.47;;;0.97;;
10465;SDS011;5280;42.600;23.556;2023-04-25T13:33:13;4.03;;;2.90;;
10465;SDS011;5280;42.600;23.556;2023-04-25T13:35:41;0.60;;;0.60;;
10465;SDS011;5280;42.600;23.556;2023-04-25T13:38:12;0.53;;;0.53;;
10465;SDS011;5280;42.600;23.556;2023-04-25T13:40:39;1.33;;;0.80;;
10465;SDS011;5280;42.600;23.556;2023-04-25T13:43:06;0.87;;;0.50;;
10465;SDS011;5280;42.600;23.556;2023-04-25T13:45:32;0.73;;;0.60;;
10465;SDS011;5280;42.600;23.556;2023-04-25T13:47:59;1.03;;;0.70;;
10465;SDS011;5280;42.600;23.556;2023-04-25T13:50:26;0.60;;;0.60;;
10465;SDS011;5280;42.600;23.556;2023-04-25T13:52:54;0.60;;;0.60;;
10465;SDS011;5280;42.600;23.556;2023-04-25T13:55:21;0.50;;;0.50;;
10465;SDS011;5280;42.600;23.556;2023-04-25T13:57:48;0.70;;;0.70;;
10465;SDS011;5280;42.600;23.556;2023-04-25T14:00:15;1.67;;;0.83;;
10465;SDS011;5280;42.600;23.556;2023-04-25T14:02:42;1.73;;;0.77;;
10465;SDS011;5280;42.600;23.556;2023-04-25T14:05:09;1.00;;;0.90;;
10465;SDS011;5280;42.600;23.556;2023-04-25T14:07:36;0.90;;;0.70;;
10465;SDS011;5280;42.600;23.556;2023-04-25T14:10:04;1.10;;;1.00;;
10465;SDS011;5280;42.600;23.556;2023-04-25T14:12:32;1.27;;;1.00;;
10465;SDS011;5280;42.600;23.556;2023-04-25T14:15:00;1.07;;;1.07;;
10465;SDS011;5280;42.600;23.556;2023-04-25T14:17:26;2.60;;;1.00;;
10465;SDS011;5280;42.600;23.556;2023-04-25T14:19:53;1.40;;;0.90;;
10465;SDS011;5280;42.600;23.556;2023-04-25T14:22:20;1.10;;;1.10;;
10465;SDS011;5280;42.600;23.556;2023-04-25T14:24:46;2.63;;;1.00;;
10465;SDS011;5280;42.600;23.556;2023-04-25T14:27:15;1.03;;;1.03;;
10465;SDS011;5280;42.600;23.556;2023-04-25T14:29:42;0.90;;;0.90;;
10465;SDS011;5280;42.600;23.556;2023-04-25T14:32:09;3.40;;;1.20;;
10465;SDS011;5280;42.600;23.556;2023-04-25T14:34:36;2.00;;;1.00;;
10465;SDS011;5280;42.600;23.556;2023-04-25T14:37:02;2.73;;;1.00;;
10465;SDS011;5280;42.600;23.556;2023-04-25T14:39:29;0.83;;;0.80;;
10465;SDS011;5280;42.600;23.556;2023-04-25T14:41:56;1.77;;;0.63;;
10465;SDS011;5280;42.600;23.556;2023-04-25T14:44:25;0.73;;;0.73;;
10465;SDS011;5280;42.600;23.556;2023-04-25T14:46:52;0.60;;;0.60;;
10465;SDS011;5280;42.600;23.556;2023-04-25T14:49:18;0.77;;;0.77;;
10465;SDS011;5280;42.600;23.556;2023-04-25T14:51:46;3.23;;;1.17;;
10465;SDS011;5280;42.600;23.556;2023-04-25T14:54:12;0.40;;;0.40;;